Time;durP1;ratioP1;P1;durP2;ratioP2;P2;SDS_P1;SDS_P2;PMS_P1;PMS_P2;Temp;Humidity;BMP_temperature;BMP_pressure;BME280_temperature;BME280_humidity;BME280_pressure;Samples;Min_cycle;Max_cycle;Signal;HPM_P1;HPM_P2
2022/11/19 00:00:08;;;;;;;;;;;0.20;81.70;;;;;;5012414;28;19984;-44
2022/11/19 00:02:35;;;;;;;;;;;0.30;82.30;;;;;;5010265;28;19913;-44
2022/11/19 00:05:01;;;;;;;;;;;0.30;82.20;;;;;;5010687;28;19924;-46
2022/11/19 00:07:31;;;;;;;;;;;0.20;82.10;;;;;;5011344;28;20254;-46
2022/11/19 00:09:57;;;;;;;;;;;0.20;82.40;;;;;;5002555;28;19909;-43
2022/11/19 00:15:09;;;;;;;;;;;0.20;82.10;;;;;;4995798;28;19964;-46
2022/11/19 00:17:36;;;;;;;;;;;0.10;82.10;;;;;;5004559;28;20321;-43
2022/11/19 00:20:03;;;;;;;;;;;0.20;82.50;;;;;;5012264;28;19909;-44
2022/11/19 00:22:29;;;;;;;;;;;0.10;82.50;;;;;;5003237;28;19945;-43
2022/11/19 00:24:56;;;;;;;;;;;0.10;82.70;;;;;;5001347;28;19909;-43
2022/11/19 00:27:22;;;;;;;;;;;0.10;82.70;;;;;;5009303;28;19919;-44
2022/11/19 00:29:49;;;;;;;;;;;0.00;82.30;;;;;;5013282;28;19978;-44
2022/11/19 00:32:16;;;;;;;;;;;0.00;82.40;;;;;;5011403;28;19920;-44
2022/11/19 00:34:43;;;;;;;;;;;0.10;82.30;;;;;;5011625;28;19917;-44
2022/11/19 00:37:10;;;;;;;;;;;0.10;82.30;;;;;;5012197;28;19909;-45
2022/11/19 00:39:36;;;;;;;;;;;0.10;82.40;;;;;;5008105;28;19909;-44
2022/11/19 00:42:03;;;;;;;;;;;0.10;82.60;;;;;;5004105;28;19913;-43
2022/11/19 00:44:29;;;;;;;;;;;0.20;82.80;;;;;;5012779;28;20692;-44
2022/11/19 00:46:55;;;;;;;;;;;0.20;82.80;;;;;;5005293;28;19909;-45
2022/11/19 00:49:22;;;;;;;;;;;0.10;82.60;;;;;;5012973;28;19905;-47
2022/11/19 00:51:52;;;;;;;;;;;0.10;82.80;;;;;;5014868;28;19945;-44
2022/11/19 00:54:18;;;;;;;;;;;0.20;82.80;;;;;;4998173;28;19983;-44
2022/11/19 00:56:45;;;;;;;;;;;0.20;82.70;;;;;;4997111;28;19909;-45
2022/11/19 00:59:12;;;;;;;;;;;0.20;82.60;;;;;;4996719;28;19936;-45
2022/11/19 01:01:39;;;;;;;;;;;0.20;82.30;;;;;;5010968;28;20346;-43
2022/11/19 01:04:06;;;;;;;;;;;0.20;82.20;;;;;;5015431;28;19920;-43
2022/11/19 01:06:32;;;;;;;;;;;0.10;82.00;;;;;;4998520;28;19910;-44
2022/11/19 01:08:58;;;;;;;;;;;0.20;82.30;;;;;;4996414;28;19929;-44
2022/11/19 01:11:27;;;;;;;;;;;0.00;81.80;;;;;;5004347;28;20586;-45
2022/11/19 01:13:52;;;;;;;;;;;0.00;82.30;;;;;;5011179;28;19953;-45
2022/11/19 01:16:23;;;;;;;;;;;0.00;82.30;;;;;;5004814;28;19999;-42
2022/11/19 01:18:50;;;;;;;;;;;0.00;82.10;;;;;;5016318;28;19905;-43
2022/11/19 01:21:18;;;;;;;;;;;0.00;82.40;;;;;;5015534;28;19916;-45
2022/11/19 01:23:45;;;;;;;;;;;0.00;82.60;;;;;;5001264;28;19933;-44
2022/11/19 01:26:12;;;;;;;;;;;0.00;82.60;;;;;;4995414;28;19945;-43
2022/11/19 01:28:39;;;;;;;;;;;0.00;82.10;;;;;;4996710;28;19906;-44
2022/11/19 01:31:08;;;;;;;;;;;0.00;82.30;;;;;;5004280;28;19910;-46
2022/11/19 01:33:35;;;;;;;;;;;0.00;82.10;;;;;;5005681;28;19919;-43
2022/11/19 01:36:03;;;;;;;;;;;0.00;82.20;;;;;;5015488;28;19968;-44
2022/11/19 01:38:30;;;;;;;;;;;0.00;82.20;;;;;;4999716;28;20001;-47
2022/11/19 01:40:57;;;;;;;;;;;0.00;82.30;;;;;;5003363;28;20358;-44
2022/11/19 01:43:41;;;;;;;;;;;0.00;82.00;;;;;;5008755;28;20395;-43
2022/11/19 01:46:08;;;;;;;;;;;0.00;81.80;;;;;;5002819;28;20051;-44
2022/11/19 01:48:38;;;;;;;;;;;0.00;82.10;;;;;;5015777;28;19909;-43
2022/11/19 01:51:22;;;;;;;;;;;-3276.70;81.90;;;;;;5012751;28;19975;-44
2022/11/19 01:53:51;;;;;;;;;;;0.00;82.20;;;;;;5014534;28;19913;-43
2022/11/19 01:56:21;;;;;;;;;;;0.00;82.10;;;;;;5014535;28;20056;-44
2022/11/19 01:58:52;;;;;;;;;;;0.00;81.90;;;;;;4998982;28;20400;-44
2022/11/19 02:01:20;;;;;;;;;;;-3276.70;81.80;;;;;;5012810;28;19964;-44
2022/11/19 02:03:46;;;;;;;;;;;-3276.70;82.10;;;;;;5009660;28;19925;-45
2022/11/19 02:06:12;;;;;;;;;;;0.00;82.60;;;;;;4995818;28;19909;-44
2022/11/19 02:08:41;;;;;;;;;;;-3276.70;82.30;;;;;;4995593;28;19917;-45
2022/11/19 02:11:26;;;;;;;;;;;-3276.70;82.60;;;;;;5004668;28;19909;-45
2022/11/19 02:14:10;;;;;;;;;;;-3276.70;82.80;;;;;;5008586;28;19967;-44
2022/11/19 02:16:54;;;;;;;;;;;-3276.70;83.00;;;;;;5013543;28;19909;-44
2022/11/19 02:19:38;;;;;;;;;;;-3276.70;83.10;;;;;;5014307;28;19909;-43
2022/11/19 02:22:10;;;;;;;;;;;-3276.60;82.90;;;;;;5011051;28;19973;-44
2022/11/19 02:24:50;;;;;;;;;;;-3276.70;82.90;;;;;;4995289;28;19909;-44
2022/11/19 02:27:34;;;;;;;;;;;-3276.70;83.10;;;;;;4994859;28;19960;-45
2022/11/19 02:30:09;;;;;;;;;;;-3276.60;82.80;;;;;;5010720;28;20025;-44
2022/11/19 02:32:53;;;;;;;;;;;-3276.60;82.90;;;;;;5011158;28;19909;-43
2022/11/19 02:35:25;;;;;;;;;;;-3276.50;83.00;;;;;;5014878;28;19913;-44
2022/11/19 02:38:15;;;;;;;;;;;-3276.50;83.30;;;;;;5008890;28;20389;-44
2022/11/19 02:40:47;;;;;;;;;;;-3276.50;83.20;;;;;;4998858;28;19952;-44
2022/11/19 02:43:31;;;;;;;;;;;-3276.50;83.20;;;;;;5009795;28;19964;-45
2022/11/19 02:46:15;;;;;;;;;;;-3276.50;82.80;;;;;;4998364;28;19967;-43
2022/11/19 02:48:51;;;;;;;;;;;-3276.50;83.10;;;;;;5013907;28;19952;-44
2022/11/19 02:51:19;;;;;;;;;;;-3276.50;83.20;;;;;;5004676;28;19914;-45
2022/11/19 02:53:49;;;;;;;;;;;-3276.50;83.20;;;;;;4995031;28;19906;-44
2022/11/19 02:56:37;;;;;;;;;;;-3276.50;83.10;;;;;;4999793;28;19920;-44
2022/11/19 03:04:34;;;;;;;;;;;-3276.50;82.90;;;;;;5004972;28;19924;-45
2022/11/19 03:07:14;;;;;;;;;;;-3276.50;82.80;;;;;;4993332;28;19910;-44
2022/11/19 03:09:54;;;;;;;;;;;-3276.60;83.10;;;;;;4994412;28;19918;-44
2022/11/19 03:12:38;;;;;;;;;;;-3276.60;83.00;;;;;;5009628;28;19913;-44
2022/11/19 03:18:17;;;;;;;;;;;-3276.60;82.70;;;;;;5000689;28;19971;-46
2022/11/19 03:20:51;;;;;;;;;;;-3276.60;82.80;;;;;;5003177;28;20414;-44
2022/11/19 03:23:30;;;;;;;;;;;-3276.50;82.70;;;;;;5010150;28;19992;-43
2022/11/19 03:26:03;;;;;;;;;;;-3276.50;82.80;;;;;;4994473;28;19905;-45
2022/11/19 03:28:31;;;;;;;;;;;-3276.50;82.90;;;;;;4993440;28;19996;-45
2022/11/19 03:30:59;;;;;;;;;;;-3276.50;83.20;;;;;;4998279;28;19979;-45
2022/11/19 03:33:33;;;;;;;;;;;-3276.40;83.40;;;;;;4996349;28;19913;-46
2022/11/19 03:36:04;;;;;;;;;;;-3276.50;83.30;;;;;;5013748;28;19916;-44
2022/11/19 03:38:31;;;;;;;;;;;-3276.50;83.40;;;;;;5004823;28;19910;-46
2022/11/19 03:41:00;;;;;;;;;;;-3276.50;83.30;;;;;;4996404;28;19913;-46
2022/11/19 03:43:28;;;;;;;;;;;-3276.50;83.10;;;;;;5013950;28;19909;-44
2022/11/19 03:45:56;;;;;;;;;;;-3276.40;82.90;;;;;;5011893;28;19925;-44
2022/11/19 03:48:23;;;;;;;;;;;-3276.50;83.00;;;;;;5014182;28;19967;-45
2022/11/19 03:51:07;;;;;;;;;;;-3276.50;82.90;;;;;;4999163;28;19920;-43
2022/11/19 03:53:34;;;;;;;;;;;-3276.40;82.70;;;;;;5013877;28;20121;-45
2022/11/19 03:56:04;;;;;;;;;;;-3276.40;82.80;;;;;;5009862;28;19913;-44
2022/11/19 03:58:35;;;;;;;;;;;-3276.40;82.70;;;;;;4994197;28;19910;-44
2022/11/19 04:01:02;;;;;;;;;;;-3276.40;82.70;;;;;;4997719;28;19910;-45
2022/11/19 04:03:29;;;;;;;;;;;-3276.40;82.80;;;;;;5013478;28;19906;-44
2022/11/19 04:05:54;;;;;;;;;;;-3276.40;82.80;;;;;;5004045;28;19953;-44
2022/11/19 04:08:21;;;;;;;;;;;-3276.30;82.70;;;;;;4993560;28;19964;-44
2022/11/19 04:10:48;;;;;;;;;;;-3276.30;82.50;;;;;;4996408;28;19910;-43
2022/11/19 04:13:14;;;;;;;;;;;-3276.30;82.60;;;;;;5013346;28;19909;-45
2022/11/19 04:15:41;;;;;;;;;;;-3276.30;82.60;;;;;;4994193;28;20343;-43
2022/11/19 04:18:11;;;;;;;;;;;-3276.30;82.50;;;;;;4993430;28;19913;-43
2022/11/19 04:20:38;;;;;;;;;;;-3276.20;82.70;;;;;;4994590;28;20303;-45
2022/11/19 04:23:04;;;;;;;;;;;-3276.20;83.00;;;;;;5013223;28;19909;-44
2022/11/19 04:25:31;;;;;;;;;;;-3276.20;82.90;;;;;;5013728;28;19910;-45
2022/11/19 04:27:58;;;;;;;;;;;-3276.20;83.00;;;;;;5016762;28;19905;-45
2022/11/19 04:30:25;;;;;;;;;;;-3276.10;83.10;;;;;;5009644;28;20390;-47
2022/11/19 04:32:52;;;;;;;;;;;-3276.10;83.20;;;;;;5015729;28;19920;-43
2022/11/19 04:35:20;;;;;;;;;;;-3276.10;83.20;;;;;;5000042;28;19924;-45
2022/11/19 04:37:47;;;;;;;;;;;-3276.10;83.20;;;;;;5012880;28;20316;-44
2022/11/19 04:40:14;;;;;;;;;;;-3276.10;83.30;;;;;;4997757;28;19921;-44
2022/11/19 04:42:40;;;;;;;;;;;-3276.10;83.40;;;;;;5013524;28;19909;-44
2022/11/19 04:45:07;;;;;;;;;;;-3276.10;83.30;;;;;;5011540;28;19914;-43
2022/11/19 04:47:34;;;;;;;;;;;-3276.00;83.80;;;;;;5011196;28;19917;-44
2022/11/19 04:50:00;;;;;;;;;;;-3276.10;83.80;;;;;;5008222;28;20270;-46
2022/11/19 04:52:27;;;;;;;;;;;-3276.00;83.80;;;;;;5014993;28;20361;-44
2022/11/19 04:54:57;;;;;;;;;;;-3276.00;84.00;;;;;;5015882;28;19909;-43
2022/11/19 04:57:23;;;;;;;;;;;-3275.90;83.90;;;;;;5005853;28;19913;-44
2022/11/19 04:59:50;;;;;;;;;;;-3275.90;83.90;;;;;;5013759;28;20355;-44
2022/11/19 05:02:17;;;;;;;;;;;-3275.90;83.70;;;;;;5012051;28;19920;-44
2022/11/19 05:04:43;;;;;;;;;;;-3275.90;83.80;;;;;;5011233;28;20382;-44
2022/11/19 05:07:11;;;;;;;;;;;-3275.80;83.90;;;;;;5010936;28;19921;-44
2022/11/19 05:09:38;;;;;;;;;;;-3275.80;84.00;;;;;;4997029;28;19913;-44
2022/11/19 05:12:05;;;;;;;;;;;-3275.80;84.10;;;;;;5009917;28;20034;-44
2022/11/19 05:14:32;;;;;;;;;;;-3275.80;84.20;;;;;;5013850;28;19909;-43
2022/11/19 05:16:59;;;;;;;;;;;-3275.80;84.20;;;;;;5010063;28;19921;-43
2022/11/19 05:19:25;;;;;;;;;;;-3275.80;84.30;;;;;;5015761;28;19941;-45
2022/11/19 05:21:50;;;;;;;;;;;-3275.80;84.50;;;;;;5015739;28;19949;-45
2022/11/19 05:24:17;;;;;;;;;;;-3275.80;84.60;;;;;;5013336;28;19996;-44
2022/11/19 05:26:44;;;;;;;;;;;-3275.70;84.70;;;;;;5013109;28;19917;-44
2022/11/19 05:29:11;;;;;;;;;;;-3275.70;84.70;;;;;;5016162;28;19909;-43
2022/11/19 05:31:37;;;;;;;;;;;-3275.70;84.70;;;;;;5012219;28;19963;-43
2022/11/19 05:34:04;;;;;;;;;;;-3275.70;84.80;;;;;;5003482;28;19913;-46
2022/11/19 05:36:30;;;;;;;;;;;-3275.70;84.90;;;;;;5015669;28;19905;-44
2022/11/19 05:38:58;;;;;;;;;;;-3275.60;84.80;;;;;;5005042;28;19968;-45
2022/11/19 05:41:27;;;;;;;;;;;-3275.60;84.80;;;;;;5013975;28;19917;-45
2022/11/19 05:43:56;;;;;;;;;;;-3275.60;84.70;;;;;;5015860;28;19910;-46
2022/11/19 05:46:23;;;;;;;;;;;-3275.60;84.80;;;;;;5007447;28;19937;-45
2022/11/19 05:48:50;;;;;;;;;;;-3275.50;84.60;;;;;;5009631;28;20345;-44
2022/11/19 05:51:17;;;;;;;;;;;-3275.50;84.70;;;;;;5006221;28;20380;-44
2022/11/19 05:53:43;;;;;;;;;;;-3275.50;84.50;;;;;;4999386;28;19976;-44
2022/11/19 05:56:10;;;;;;;;;;;-3275.50;84.50;;;;;;4995743;28;19909;-45
2022/11/19 05:58:36;;;;;;;;;;;-3275.50;84.50;;;;;;4995596;28;19937;-44
2022/11/19 06:01:02;;;;;;;;;;;-3275.50;84.60;;;;;;5004676;28;19914;-45
2022/11/19 06:03:29;;;;;;;;;;;-3275.40;84.60;;;;;;5014362;28;19959;-44
2022/11/19 06:05:54;;;;;;;;;;;-3275.40;84.50;;;;;;5014854;28;20357;-43
2022/11/19 06:08:21;;;;;;;;;;;-3275.40;84.50;;;;;;5012352;28;19921;-47
2022/11/19 06:10:48;;;;;;;;;;;-3275.40;84.60;;;;;;5013279;28;19917;-45
2022/11/19 06:13:15;;;;;;;;;;;-3275.40;84.50;;;;;;5013460;28;19952;-44
2022/11/19 06:15:42;;;;;;;;;;;-3275.40;84.50;;;;;;5010104;28;19956;-43
2022/11/19 06:18:08;;;;;;;;;;;-3275.40;84.50;;;;;;5010450;28;19967;-43
2022/11/19 06:20:35;;;;;;;;;;;-3275.40;84.90;;;;;;5014048;28;19913;-44
2022/11/19 06:23:02;;;;;;;;;;;-3275.40;85.00;;;;;;5012059;28;19924;-44
2022/11/19 06:25:29;;;;;;;;;;;-3275.30;85.10;;;;;;5012180;28;19995;-46
2022/11/19 06:27:56;;;;;;;;;;;-3275.30;85.20;;;;;;5012085;28;19909;-47
2022/11/19 06:30:22;;;;;;;;;;;-3275.40;85.40;;;;;;5013461;28;19909;-46
2022/11/19 06:32:49;;;;;;;;;;;-3275.40;85.60;;;;;;5013763;28;19920;-45
2022/11/19 06:35:15;;;;;;;;;;;-3275.40;85.80;;;;;;5007675;28;20000;-44
2022/11/19 06:37:42;;;;;;;;;;;-3275.40;85.90;;;;;;5014462;28;20000;-43
2022/11/19 06:40:09;;;;;;;;;;;-3275.50;86.00;;;;;;5011858;28;19910;-45
2022/11/19 06:42:36;;;;;;;;;;;-3275.50;86.30;;;;;;5014602;28;19949;-44
2022/11/19 06:45:10;;;;;;;;;;;-3275.50;86.50;;;;;;5012399;28;19940;-44
2022/11/19 06:47:36;;;;;;;;;;;-3275.60;86.50;;;;;;5010021;28;19948;-48
2022/11/19 06:50:04;;;;;;;;;;;-3275.50;86.50;;;;;;5014392;28;20320;-44
2022/11/19 06:52:31;;;;;;;;;;;-3275.50;86.50;;;;;;5013500;28;20309;-44
2022/11/19 06:54:57;;;;;;;;;;;-3275.60;86.60;;;;;;5014500;28;19909;-45
2022/11/19 06:57:24;;;;;;;;;;;-3275.50;86.40;;;;;;5008373;28;20217;-44
2022/11/19 06:59:51;;;;;;;;;;;-3275.50;86.60;;;;;;5000331;28;20008;-43
2022/11/19 07:02:17;;;;;;;;;;;-3275.60;86.50;;;;;;5012984;28;20054;-45
2022/11/19 07:04:44;;;;;;;;;;;-3275.60;86.60;;;;;;4994561;28;19985;-44
2022/11/19 07:07:13;;;;;;;;;;;-3275.60;86.60;;;;;;4993279;28;19944;-45
2022/11/19 07:09:40;;;;;;;;;;;-3275.60;86.80;;;;;;4994927;28;19956;-44
2022/11/19 07:12:07;;;;;;;;;;;-3275.60;86.80;;;;;;5013833;28;19916;-44
2022/11/19 07:14:34;;;;;;;;;;;-3275.60;87.00;;;;;;5013337;28;20022;-44
2022/11/19 07:17:01;;;;;;;;;;;-3275.70;87.20;;;;;;5011332;28;20004;-45
2022/11/19 07:19:27;;;;;;;;;;;-3275.70;87.20;;;;;;4997092;28;20339;-44
2022/11/19 07:21:54;;;;;;;;;;;-3275.70;87.10;;;;;;5002566;28;19909;-43
2022/11/19 07:24:20;;;;;;;;;;;-3275.70;87.30;;;;;;5012969;28;19913;-43
2022/11/19 07:26:46;;;;;;;;;;;-3275.80;87.50;;;;;;4997316;28;19913;-44
2022/11/19 07:29:15;;;;;;;;;;;-3275.80;87.70;;;;;;5006566;28;19933;-44
2022/11/19 07:31:42;;;;;;;;;;;-3275.90;87.90;;;;;;5009945;28;20289;-46
2022/11/19 07:34:12;;;;;;;;;;;-3276.00;88.00;;;;;;5012410;28;19906;-44
2022/11/19 07:36:38;;;;;;;;;;;-3276.10;88.30;;;;;;5011540;28;19945;-45
2022/11/19 07:39:05;;;;;;;;;;;-3276.30;88.40;;;;;;5008658;28;19913;-46
2022/11/19 07:44:16;;;;;;;;;;;-3276.70;87.90;;;;;;5012533;28;20026;-44
2022/11/19 07:46:43;;;;;;;;;;;0.00;87.60;;;;;;5007772;28;19957;-45
2022/11/19 07:49:10;;;;;;;;;;;0.10;87.40;;;;;;5004756;28;19909;-44
2022/11/19 07:51:36;;;;;;;;;;;0.20;87.30;;;;;;5011468;28;19920;-43
2022/11/19 07:54:03;;;;;;;;;;;0.40;87.50;;;;;;5001286;28;19909;-44
2022/11/19 07:56:32;;;;;;;;;;;0.50;87.00;;;;;;5010135;28;19913;-44
2022/11/19 07:58:59;;;;;;;;;;;0.60;86.70;;;;;;5013374;28;19949;-44
2022/11/19 08:01:26;;;;;;;;;;;0.70;86.50;;;;;;5009441;28;19918;-44
2022/11/19 08:03:53;;;;;;;;;;;0.70;86.60;;;;;;5011950;28;19996;-44
2022/11/19 08:06:23;;;;;;;;;;;0.80;86.60;;;;;;5007372;28;19910;-44
2022/11/19 08:08:50;;;;;;;;;;;0.90;86.70;;;;;;5012670;28;19921;-43
2022/11/19 08:11:19;;;;;;;;;;;0.90;86.70;;;;;;5011961;28;19948;-46
2022/11/19 08:13:46;;;;;;;;;;;1.00;86.80;;;;;;5008022;28;19921;-44
2022/11/19 08:19:14;;;;;;;;;;;1.30;86.70;;;;;;5009984;28;19996;-44
2022/11/19 08:21:43;;;;;;;;;;;1.40;86.60;;;;;;5012428;28;20385;-44
2022/11/19 08:24:10;;;;;;;;;;;1.50;86.50;;;;;;5011924;28;19928;-45
2022/11/19 08:26:37;;;;;;;;;;;1.60;86.50;;;;;;5008618;28;20617;-43
2022/11/19 08:29:06;;;;;;;;;;;1.70;86.40;;;;;;5012238;28;19913;-44
2022/11/19 08:31:34;;;;;;;;;;;1.90;86.30;;;;;;5010215;28;19952;-42
2022/11/19 08:34:02;;;;;;;;;;;1.90;86.00;;;;;;5011139;28;19910;-43
2022/11/19 08:36:29;;;;;;;;;;;2.00;85.60;;;;;;5010697;28;19905;-43
2022/11/19 08:39:03;;;;;;;;;;;2.10;85.30;;;;;;5012384;28;19914;-43
2022/11/19 08:44:16;;;;;;;;;;;2.30;84.20;;;;;;5012074;28;19927;-44
2022/11/19 08:46:43;;;;;;;;;;;2.40;83.60;;;;;;5009700;28;20258;-42
2022/11/19 08:49:10;;;;;;;;;;;2.50;83.70;;;;;;5010921;28;19968;-41
2022/11/19 08:51:41;;;;;;;;;;;2.70;83.90;;;;;;5011516;28;20001;-41
2022/11/19 08:54:08;;;;;;;;;;;2.90;83.90;;;;;;5010671;28;19917;-42
2022/11/19 08:56:35;;;;;;;;;;;3.00;84.30;;;;;;5013094;28;19913;-43
2022/11/19 08:59:00;;;;;;;;;;;3.10;84.00;;;;;;5009183;28;20773;-41
2022/11/19 09:01:27;;;;;;;;;;;3.30;84.00;;;;;;5010181;28;19920;-42
2022/11/19 09:03:54;;;;;;;;;;;3.50;83.70;;;;;;5012372;28;19920;-42
2022/11/19 09:06:21;;;;;;;;;;;3.60;83.80;;;;;;5010547;28;19939;-41
2022/11/19 09:08:48;;;;;;;;;;;3.80;83.10;;;;;;5011327;28;19925;-43
2022/11/19 09:11:15;;;;;;;;;;;3.90;82.50;;;;;;5008283;28;19924;-43
2022/11/19 09:13:42;;;;;;;;;;;3.90;81.80;;;;;;5012032;28;20358;-43
2022/11/19 09:16:09;;;;;;;;;;;4.00;81.60;;;;;;5013816;28;19918;-42
2022/11/19 09:18:38;;;;;;;;;;;4.20;80.70;;;;;;5011656;28;19913;-41
2022/11/19 09:21:06;;;;;;;;;;;4.30;80.50;;;;;;5011683;28;19914;-43
2022/11/19 09:23:35;;;;;;;;;;;4.30;79.70;;;;;;5012499;28;19914;-45
2022/11/19 09:26:07;;;;;;;;;;;4.40;79.10;;;;;;5013578;28;19913;-43
2022/11/19 09:28:33;;;;;;;;;;;4.40;78.60;;;;;;5010061;28;19922;-42
2022/11/19 09:31:02;;;;;;;;;;;4.50;76.50;;;;;;4996574;28;19945;-43
2022/11/19 09:33:29;;;;;;;;;;;4.60;76.40;;;;;;5004940;28;19989;-42
2022/11/19 09:35:59;;;;;;;;;;;4.60;76.00;;;;;;5011834;28;19938;-42
2022/11/19 09:38:26;;;;;;;;;;;4.60;76.00;;;;;;4996319;28;19967;-43
2022/11/19 09:40:54;;;;;;;;;;;4.60;75.30;;;;;;4996125;28;19905;-44
2022/11/19 09:43:38;;;;;;;;;;;4.80;75.80;;;;;;5004958;28;19913;-42
2022/11/19 09:46:22;;;;;;;;;;;4.90;76.20;;;;;;5013673;28;19919;-43
2022/11/19 09:48:49;;;;;;;;;;;4.90;76.10;;;;;;5015262;28;19913;-44
2022/11/19 09:51:17;;;;;;;;;;;4.90;75.60;;;;;;5014249;28;20305;-42
2022/11/19 09:53:59;;;;;;;;;;;5.00;75.20;;;;;;5010496;28;19917;-43
2022/11/19 09:56:37;;;;;;;;;;;5.00;75.20;;;;;;4994684;28;19975;-43
2022/11/19 09:59:12;;;;;;;;;;;5.00;74.60;;;;;;4995538;28;19925;-42
2022/11/19 10:01:39;;;;;;;;;;;5.00;74.30;;;;;;5002356;28;19913;-43
2022/11/19 10:04:09;;;;;;;;;;;4.90;73.80;;;;;;5013567;28;19964;-43
2022/11/19 10:06:47;;;;;;;;;;;4.90;74.50;;;;;;5015337;28;19968;-42
2022/11/19 10:09:25;;;;;;;;;;;4.80;75.10;;;;;;5009243;28;19928;-42
2022/11/19 10:11:57;;;;;;;;;;;4.80;75.20;;;;;;4995427;28;19914;-44
2022/11/19 10:14:41;;;;;;;;;;;4.80;75.60;;;;;;4999982;28;19937;-44
2022/11/19 10:17:33;;;;;;;;;;;4.80;76.10;;;;;;5009533;28;19914;-47
2022/11/19 10:20:17;;;;;;;;;;;4.90;76.40;;;;;;4991931;28;19996;-43
2022/11/19 10:23:01;;;;;;;;;;;4.90;75.50;;;;;;5014090;28;19979;-43
2022/11/19 10:25:32;;;;;;;;;;;4.90;76.00;;;;;;5014514;28;19913;-43
2022/11/19 10:28:08;;;;;;;;;;;4.90;75.80;;;;;;5010251;28;19915;-46
2022/11/19 10:30:34;;;;;;;;;;;4.90;75.90;;;;;;5010778;28;20391;-43
2022/11/19 10:33:03;;;;;;;;;;;5.00;75.90;;;;;;5014430;28;19905;-47
2022/11/19 10:35:56;;;;;;;;;;;5.00;76.40;;;;;;5013842;28;19913;-46
2022/11/19 10:38:28;;;;;;;;;;;5.00;77.10;;;;;;5006762;28;19909;-44
2022/11/19 10:40:57;;;;;;;;;;;5.00;76.70;;;;;;5011065;28;19944;-44
2022/11/19 10:43:56;;;;;;;;;;;5.10;77.00;;;;;;5013129;28;19909;-47
2022/11/19 10:46:24;;;;;;;;;;;5.10;76.40;;;;;;4949303;29;19918;-48
2022/11/19 10:48:54;;;;;;;;;;;5.00;76.80;;;;;;4953853;29;20211;-47
2022/11/19 10:51:34;;;;;;;;;;;5.00;77.00;;;;;;4937990;29;19974;-46
2022/11/19 10:54:03;;;;;;;;;;;5.00;76.90;;;;;;4952572;28;19910;-44
2022/11/19 10:56:35;;;;;;;;;;;5.00;77.40;;;;;;4953087;29;19961;-43
2022/11/19 10:59:08;;;;;;;;;;;5.00;77.20;;;;;;4940604;29;19918;-43
2022/11/19 11:01:43;;;;;;;;;;;5.00;77.10;;;;;;4953651;29;19910;-47
2022/11/19 11:04:27;;;;;;;;;;;5.00;76.40;;;;;;4937345;29;19937;-43
2022/11/19 11:06:53;;;;;;;;;;;5.00;77.20;;;;;;4953131;29;19910;-44
2022/11/19 11:09:37;;;;;;;;;;;5.00;77.60;;;;;;4954007;29;19926;-44
2022/11/19 11:15:18;;;;;;;;;;;5.00;78.00;;;;;;4948461;29;20407;-44
2022/11/19 11:17:45;;;;;;;;;;;5.10;78.60;;;;;;4933057;28;20581;-46
2022/11/19 11:20:17;;;;;;;;;;;5.20;78.60;;;;;;4943398;29;19915;-46
2022/11/19 11:22:44;;;;;;;;;;;5.30;76.40;;;;;;4990879;28;19910;-45
2022/11/19 11:25:29;;;;;;;;;;;5.40;75.20;;;;;;5020005;28;19966;-43
2022/11/19 11:28:17;;;;;;;;;;;5.40;74.60;;;;;;5009699;28;19913;-44
2022/11/19 11:30:55;;;;;;;;;;;5.40;75.90;;;;;;4999953;28;19921;-44
2022/11/19 11:33:41;;;;;;;;;;;5.40;75.70;;;;;;5002295;28;20335;-44
2022/11/19 11:36:12;;;;;;;;;;;5.20;75.70;;;;;;5000295;28;19913;-44
2022/11/19 11:38:43;;;;;;;;;;;5.10;77.10;;;;;;5007184;28;19909;-44
2022/11/19 11:41:12;;;;;;;;;;;5.20;77.80;;;;;;5013634;28;19941;-44
2022/11/19 11:43:39;;;;;;;;;;;5.10;77.70;;;;;;5011332;28;19924;-44
2022/11/19 11:46:08;;;;;;;;;;;5.10;77.90;;;;;;5013478;28;20301;-44
2022/11/19 11:48:40;;;;;;;;;;;5.00;78.20;;;;;;5013106;28;19964;-46
2022/11/19 11:51:21;;;;;;;;;;;5.10;78.60;;;;;;5013570;28;19996;-46
2022/11/19 11:54:01;;;;;;;;;;;5.10;78.80;;;;;;5006819;28;19910;-45
2022/11/19 11:56:27;;;;;;;;;;;5.10;79.00;;;;;;4995547;28;19971;-44
2022/11/19 11:59:11;;;;;;;;;;;5.10;79.70;;;;;;5008379;28;19916;-43
2022/11/19 12:01:39;;;;;;;;;;;5.20;80.00;;;;;;5000459;28;19913;-44
2022/11/19 12:04:10;;;;;;;;;;;5.10;78.90;;;;;;5011811;28;19914;-44
2022/11/19 12:06:59;;;;;;;;;;;4.90;77.90;;;;;;5009138;28;19914;-45
2022/11/19 12:09:45;;;;;;;;;;;4.90;77.90;;;;;;5010930;28;20008;-44
2022/11/19 12:12:28;;;;;;;;;;;4.90;76.80;;;;;;5002443;28;20327;-42
2022/11/19 12:15:06;;;;;;;;;;;4.70;75.70;;;;;;5012801;28;19952;-44
2022/11/19 12:17:50;;;;;;;;;;;4.80;75.70;;;;;;5007671;28;19910;-42
2022/11/19 12:20:34;;;;;;;;;;;4.80;75.70;;;;;;5008341;28;19913;-44
2022/11/19 12:23:18;;;;;;;;;;;4.90;75.90;;;;;;5012423;28;19909;-45
2022/11/19 12:25:52;;;;;;;;;;;4.80;74.30;;;;;;5007886;28;19936;-44
2022/11/19 12:28:36;;;;;;;;;;;4.90;74.80;;;;;;5007976;28;19913;-46
2022/11/19 12:31:16;;;;;;;;;;;4.90;75.00;;;;;;5008693;28;20052;-46
2022/11/19 12:33:50;;;;;;;;;;;4.90;75.40;;;;;;5009006;28;19918;-43
2022/11/19 12:36:34;;;;;;;;;;;4.90;74.20;;;;;;5006099;28;19949;-45
2022/11/19 12:39:18;;;;;;;;;;;4.90;74.70;;;;;;4997550;28;19964;-44
2022/11/19 12:42:04;;;;;;;;;;;4.90;74.10;;;;;;5005694;28;19913;-44
2022/11/19 12:44:48;;;;;;;;;;;4.90;74.50;;;;;;5011200;28;20012;-44
2022/11/19 12:47:32;;;;;;;;;;;4.90;74.90;;;;;;5005269;28;19932;-43
2022/11/19 12:50:18;;;;;;;;;;;4.90;74.20;;;;;;5014088;28;19917;-43
2022/11/19 12:53:03;;;;;;;;;;;4.90;74.30;;;;;;5012094;28;19919;-44
2022/11/19 12:55:38;;;;;;;;;;;4.90;74.20;;;;;;5013439;28;19984;-43
2022/11/19 12:58:15;;;;;;;;;;;4.90;75.10;;;;;;5012581;28;20367;-44
2022/11/19 13:00:49;;;;;;;;;;;4.80;74.80;;;;;;5013380;28;19969;-43
2022/11/19 13:03:20;;;;;;;;;;;4.90;74.80;;;;;;5015234;28;19913;-44
2022/11/19 13:06:05;;;;;;;;;;;4.90;75.30;;;;;;5013767;28;19913;-45
2022/11/19 13:08:49;;;;;;;;;;;4.80;75.10;;;;;;5011001;28;19918;-43
2022/11/19 13:11:20;;;;;;;;;;;4.80;75.30;;;;;;5014514;28;19972;-43
2022/11/19 13:13:49;;;;;;;;;;;4.80;75.30;;;;;;5014970;28;19928;-46
2022/11/19 13:16:17;;;;;;;;;;;4.70;75.50;;;;;;5014613;28;20015;-48
2022/11/19 13:18:46;;;;;;;;;;;4.70;75.90;;;;;;5014761;28;19914;-43
2022/11/19 13:21:25;;;;;;;;;;;4.80;75.90;;;;;;5014021;28;19924;-43
2022/11/19 13:23:52;;;;;;;;;;;4.70;76.20;;;;;;5007984;28;19909;-43
2022/11/19 13:26:22;;;;;;;;;;;4.70;76.90;;;;;;5015160;28;19917;-44
2022/11/19 13:29:06;;;;;;;;;;;4.70;77.80;;;;;;5007942;28;19929;-44
2022/11/19 13:31:45;;;;;;;;;;;4.70;77.80;;;;;;5005415;28;19923;-43
2022/11/19 13:34:30;;;;;;;;;;;4.70;77.70;;;;;;5014689;28;20309;-44
2022/11/19 13:37:14;;;;;;;;;;;4.60;77.90;;;;;;5006725;28;19913;-43
2022/11/19 13:39:46;;;;;;;;;;;4.60;78.10;;;;;;5013022;28;20282;-43
2022/11/19 13:44:59;;;;;;;;;;;4.50;77.20;;;;;;5014023;28;20246;-44
2022/11/19 13:47:46;;;;;;;;;;;4.50;76.90;;;;;;5013944;28;19913;-44
2022/11/19 13:50:19;;;;;;;;;;;4.50;77.00;;;;;;5010183;28;19923;-45
2022/11/19 13:52:57;;;;;;;;;;;4.50;77.00;;;;;;5012796;28;19910;-43
2022/11/19 13:55:31;;;;;;;;;;;4.50;77.20;;;;;;5019841;28;20385;-43
2022/11/19 13:58:18;;;;;;;;;;;4.40;78.00;;;;;;5013579;28;19905;-46
2022/11/19 14:01:10;;;;;;;;;;;4.40;78.60;;;;;;4996947;28;20012;-46
2022/11/19 14:03:54;;;;;;;;;;;4.40;79.20;;;;;;4992129;28;19932;-44
2022/11/19 14:06:35;;;;;;;;;;;4.40;79.50;;;;;;5001739;28;20343;-43
2022/11/19 14:09:10;;;;;;;;;;;4.40;79.50;;;;;;5002104;28;19918;-44
2022/11/19 14:11:54;;;;;;;;;;;4.40;79.50;;;;;;5004409;28;19914;-44
2022/11/19 14:26:42;;;;;;;;;;;4.20;80.00;;;;;;5007473;28;19924;-43
2022/11/19 14:29:28;;;;;;;;;;;4.20;80.10;;;;;;5004375;28;19913;-44
2022/11/19 14:32:06;;;;;;;;;;;4.10;80.40;;;;;;5002332;28;20756;-47
2022/11/19 14:34:50;;;;;;;;;;;4.10;80.50;;;;;;5006044;28;20328;-45
2022/11/19 14:37:18;;;;;;;;;;;4.10;80.60;;;;;;5022341;28;19913;-46
2022/11/19 14:39:47;;;;;;;;;;;4.10;80.70;;;;;;5010417;28;19913;-44
2022/11/19 14:42:21;;;;;;;;;;;4.00;80.80;;;;;;5001942;28;20250;-44
2022/11/19 14:45:04;;;;;;;;;;;4.00;81.00;;;;;;5002960;28;20232;-43
2022/11/19 14:47:42;;;;;;;;;;;3.90;80.90;;;;;;5005328;28;19925;-45
2022/11/19 14:50:25;;;;;;;;;;;3.90;80.80;;;;;;5008391;28;19921;-45
2022/11/19 14:53:09;;;;;;;;;;;3.90;80.50;;;;;;5005521;28;20259;-43
2022/11/19 14:55:35;;;;;;;;;;;3.90;80.60;;;;;;5005195;28;19913;-44
2022/11/19 14:58:19;;;;;;;;;;;3.80;80.70;;;;;;5005280;28;19919;-44
2022/11/19 15:00:46;;;;;;;;;;;3.70;80.90;;;;;;5005144;28;19914;-44
2022/11/19 15:03:21;;;;;;;;;;;3.70;81.30;;;;;;5006566;28;19914;-44
2022/11/19 15:05:48;;;;;;;;;;;3.60;81.50;;;;;;5003306;28;19917;-45
2022/11/19 15:08:19;;;;;;;;;;;3.60;81.70;;;;;;5003519;28;19917;-44
2022/11/19 15:11:05;;;;;;;;;;;3.60;81.80;;;;;;4999444;28;20235;-44
2022/11/19 15:13:33;;;;;;;;;;;3.40;81.80;;;;;;5008785;28;19913;-43